Terminal Aerodrome Forecast
Issued by NWS

Home | Current Version | Previous Version | Text Only | Print | Product List | Glossary On
Versions: 1 2 3 4 5 6 7 8 9 10 11 12 13 14
279
FTAK31 PAJN 090521
TAFAYA
TAF
PAYA 090521Z 0906/1006 06007KT 5SM -RA BR SCT006 OVC015
     FM091000 21009KT P6SM VCSH SCT015 OVC030
     FM091500 06004KT P6SM SCT010 SCT025 OVC060
     FM092300 08007KT P6SM SCT010 OVC050
      AMD LTD TO CLD VIS AND WIND 0906/0909=

USA.gov is the U.S. government's official web portal to all federal, state and local government web resources and services.